sensor_id;sensor_type;location;lat;lon;timestamp;P1;durP1;ratioP1;P2;durP2;ratioP2
57565;SDS011;63999;43.882;-0.310;2023-02-19T00:02:04;15.40;;;10.07;;
57565;SDS011;63999;43.882;-0.310;2023-02-19T00:04:32;14.93;;;9.93;;
57565;SDS011;63999;43.882;-0.310;2023-02-19T00:06:59;14.65;;;10.52;;
57565;SDS011;63999;43.882;-0.310;2023-02-19T00:09:25;22.42;;;14.90;;
57565;SDS011;63999;43.882;-0.310;2023-02-19T00:11:53;13.10;;;9.52;;
57565;SDS011;63999;43.882;-0.310;2023-02-19T00:14:20;12.80;;;10.00;;
57565;SDS011;63999;43.882;-0.310;2023-02-19T00:16:47;14.75;;;11.63;;
57565;SDS011;63999;43.882;-0.310;2023-02-19T00:19:15;18.00;;;12.82;;
57565;SDS011;63999;43.882;-0.310;2023-02-19T00:21:45;17.27;;;13.68;;
57565;SDS011;63999;43.882;-0.310;2023-02-19T00:24:13;18.55;;;13.50;;
57565;SDS011;63999;43.882;-0.310;2023-02-19T00:26:41;19.50;;;12.30;;
57565;SDS011;63999;43.882;-0.310;2023-02-19T00:29:14;14.93;;;11.15;;
57565;SDS011;63999;43.882;-0.310;2023-02-19T00:31:43;14.75;;;10.68;;
57565;SDS011;63999;43.882;-0.310;2023-02-19T00:34:10;13.18;;;9.90;;
57565;SDS011;63999;43.882;-0.310;2023-02-19T00:36:38;12.30;;;9.27;;
57565;SDS011;63999;43.882;-0.310;2023-02-19T00:39:06;12.95;;;9.98;;
57565;SDS011;63999;43.882;-0.310;2023-02-19T00:41:36;15.63;;;9.50;;
57565;SDS011;63999;43.882;-0.310;2023-02-19T00:44:05;12.52;;;9.07;;
57565;SDS011;63999;43.882;-0.310;2023-02-19T00:46:34;12.73;;;9.23;;
57565;SDS011;63999;43.882;-0.310;2023-02-19T00:49:08;12.43;;;9.10;;
57565;SDS011;63999;43.882;-0.310;2023-02-19T00:51:46;13.95;;;8.68;;
57565;SDS011;63999;43.882;-0.310;2023-02-19T00:54:13;13.57;;;8.27;;
57565;SDS011;63999;43.882;-0.310;2023-02-19T00:56:40;10.02;;;7.60;;
57565;SDS011;63999;43.882;-0.310;2023-02-19T00:59:08;10.55;;;7.95;;
57565;SDS011;63999;43.882;-0.310;2023-02-19T01:01:35;12.05;;;8.63;;
57565;SDS011;63999;43.882;-0.310;2023-02-19T01:04:01;13.77;;;9.02;;
57565;SDS011;63999;43.882;-0.310;2023-02-19T01:06:27;12.00;;;9.13;;
57565;SDS011;63999;43.882;-0.310;2023-02-19T01:08:57;15.13;;;10.77;;
57565;SDS011;63999;43.882;-0.310;2023-02-19T01:11:23;12.82;;;9.23;;
57565;SDS011;63999;43.882;-0.310;2023-02-19T01:13:50;14.45;;;10.07;;
57565;SDS011;63999;43.882;-0.310;2023-02-19T01:16:20;14.07;;;9.55;;
57565;SDS011;63999;43.882;-0.310;2023-02-19T01:18:49;13.15;;;10.43;;
57565;SDS011;63999;43.882;-0.310;2023-02-19T01:21:20;14.73;;;10.32;;
57565;SDS011;63999;43.882;-0.310;2023-02-19T01:23:49;13.23;;;10.80;;
57565;SDS011;63999;43.882;-0.310;2023-02-19T01:26:18;14.82;;;11.40;;
57565;SDS011;63999;43.882;-0.310;2023-02-19T01:28:47;13.63;;;10.45;;
57565;SDS011;63999;43.882;-0.310;2023-02-19T01:31:15;14.25;;;10.63;;
57565;SDS011;63999;43.882;-0.310;2023-02-19T01:33:45;12.82;;;9.80;;
57565;SDS011;63999;43.882;-0.310;2023-02-19T01:36:12;16.35;;;10.73;;
57565;SDS011;63999;43.882;-0.310;2023-02-19T01:38:39;12.88;;;9.52;;
57565;SDS011;63999;43.882;-0.310;2023-02-19T01:41:06;12.88;;;9.88;;
57565;SDS011;63999;43.882;-0.310;2023-02-19T01:43:54;13.55;;;9.63;;
57565;SDS011;63999;43.882;-0.310;2023-02-19T01:46:27;13.60;;;9.60;;
57565;SDS011;63999;43.882;-0.310;2023-02-19T01:48:57;12.05;;;9.18;;
57565;SDS011;63999;43.882;-0.310;2023-02-19T01:51:26;12.40;;;9.40;;
57565;SDS011;63999;43.882;-0.310;2023-02-19T01:53:54;14.13;;;9.75;;
57565;SDS011;63999;43.882;-0.310;2023-02-19T01:56:25;13.52;;;9.73;;
57565;SDS011;63999;43.882;-0.310;2023-02-19T01:58:53;13.55;;;9.38;;
57565;SDS011;63999;43.882;-0.310;2023-02-19T02:01:19;13.77;;;9.80;;
57565;SDS011;63999;43.882;-0.310;2023-02-19T02:03:46;13.23;;;8.80;;
57565;SDS011;63999;43.882;-0.310;2023-02-19T02:06:16;11.45;;;9.35;;
57565;SDS011;63999;43.882;-0.310;2023-02-19T02:08:45;13.63;;;9.50;;
57565;SDS011;63999;43.882;-0.310;2023-02-19T02:11:32;11.48;;;9.40;;
57565;SDS011;63999;43.882;-0.310;2023-02-19T02:13:59;12.93;;;9.48;;
57565;SDS011;63999;43.882;-0.310;2023-02-19T02:27:23;12.73;;;10.13;;
57565;SDS011;63999;43.882;-0.310;2023-02-19T02:35:18;11.13;;;7.70;;
57565;SDS011;63999;43.882;-0.310;2023-02-19T02:37:47;9.75;;;7.47;;
57565;SDS011;63999;43.882;-0.310;2023-02-19T02:40:15;13.90;;;8.00;;
57565;SDS011;63999;43.882;-0.310;2023-02-19T02:42:42;10.13;;;7.85;;
57565;SDS011;63999;43.882;-0.310;2023-02-19T02:50:45;10.90;;;8.63;;
57565;SDS011;63999;43.882;-0.310;2023-02-19T02:56:39;10.20;;;8.20;;
57565;SDS011;63999;43.882;-0.310;2023-02-19T02:59:08;11.77;;;7.95;;
57565;SDS011;63999;43.882;-0.310;2023-02-19T03:04:45;12.85;;;8.38;;
57565;SDS011;63999;43.882;-0.310;2023-02-19T03:07:45;11.27;;;8.65;;
57565;SDS011;63999;43.882;-0.310;2023-02-19T03:11:04;13.23;;;8.75;;
57565;SDS011;63999;43.882;-0.310;2023-02-19T03:13:50;11.88;;;8.85;;
57565;SDS011;63999;43.882;-0.310;2023-02-19T03:16:41;11.95;;;8.50;;
57565;SDS011;63999;43.882;-0.310;2023-02-19T03:19:27;15.25;;;8.70;;
57565;SDS011;63999;43.882;-0.310;2023-02-19T03:24:28;10.10;;;8.65;;
57565;SDS011;63999;43.882;-0.310;2023-02-19T03:27:15;12.57;;;8.82;;
57565;SDS011;63999;43.882;-0.310;2023-02-19T03:29:43;11.57;;;9.13;;
57565;SDS011;63999;43.882;-0.310;2023-02-19T03:32:19;13.35;;;9.23;;
57565;SDS011;63999;43.882;-0.310;2023-02-19T03:35:51;10.48;;;7.65;;
57565;SDS011;63999;43.882;-0.310;2023-02-19T03:37:52;11.90;;;8.00;;
57565;SDS011;63999;43.882;-0.310;2023-02-19T03:40:26;10.82;;;7.95;;
57565;SDS011;63999;43.882;-0.310;2023-02-19T03:45:35;10.80;;;9.00;;
57565;SDS011;63999;43.882;-0.310;2023-02-19T03:51:14;11.40;;;9.45;;
57565;SDS011;63999;43.882;-0.310;2023-02-19T03:56:27;11.07;;;9.15;;
57565;SDS011;63999;43.882;-0.310;2023-02-19T04:01:41;11.68;;;8.52;;
57565;SDS011;63999;43.882;-0.310;2023-02-19T04:04:16;11.25;;;8.45;;
57565;SDS011;63999;43.882;-0.310;2023-02-19T04:06:47;12.55;;;8.30;;
57565;SDS011;63999;43.882;-0.310;2023-02-19T04:09:18;12.75;;;8.82;;
57565;SDS011;63999;43.882;-0.310;2023-02-19T04:11:46;10.02;;;7.82;;
57565;SDS011;63999;43.882;-0.310;2023-02-19T04:14:15;9.90;;;8.35;;
57565;SDS011;63999;43.882;-0.310;2023-02-19T04:16:53;9.48;;;7.88;;
57565;SDS011;63999;43.882;-0.310;2023-02-19T04:19:24;9.73;;;8.00;;
57565;SDS011;63999;43.882;-0.310;2023-02-19T04:21:51;12.95;;;9.05;;
57565;SDS011;63999;43.882;-0.310;2023-02-19T04:24:40;10.75;;;8.20;;
57565;SDS011;63999;43.882;-0.310;2023-02-19T04:27:08;11.35;;;8.70;;
57565;SDS011;63999;43.882;-0.310;2023-02-19T04:29:35;14.38;;;9.07;;
57565;SDS011;63999;43.882;-0.310;2023-02-19T04:32:00;12.70;;;8.73;;
57565;SDS011;63999;43.882;-0.310;2023-02-19T04:34:26;11.15;;;8.55;;
57565;SDS011;63999;43.882;-0.310;2023-02-19T04:36:52;10.07;;;8.00;;
57565;SDS011;63999;43.882;-0.310;2023-02-19T04:39:18;10.82;;;7.78;;
57565;SDS011;63999;43.882;-0.310;2023-02-19T04:41:44;9.88;;;7.72;;
57565;SDS011;63999;43.882;-0.310;2023-02-19T04:44:09;13.60;;;8.25;;
57565;SDS011;63999;43.882;-0.310;2023-02-19T04:46:35;9.20;;;7.70;;
57565;SDS011;63999;43.882;-0.310;2023-02-19T04:49:01;8.93;;;7.30;;
57565;SDS011;63999;43.882;-0.310;2023-02-19T04:51:27;13.48;;;6.88;;
57565;SDS011;63999;43.882;-0.310;2023-02-19T04:53:53;8.82;;;7.03;;
57565;SDS011;63999;43.882;-0.310;2023-02-19T04:56:20;8.90;;;6.47;;
57565;SDS011;63999;43.882;-0.310;2023-02-19T04:58:46;7.50;;;6.60;;
57565;SDS011;63999;43.882;-0.310;2023-02-19T05:01:12;9.65;;;6.80;;
57565;SDS011;63999;43.882;-0.310;2023-02-19T05:03:38;9.02;;;6.60;;
57565;SDS011;63999;43.882;-0.310;2023-02-19T05:06:05;8.43;;;6.53;;
57565;SDS011;63999;43.882;-0.310;2023-02-19T05:08:32;7.75;;;6.43;;
57565;SDS011;63999;43.882;-0.310;2023-02-19T05:10:58;9.82;;;6.88;;
57565;SDS011;63999;43.882;-0.310;2023-02-19T05:13:25;11.98;;;8.02;;
57565;SDS011;63999;43.882;-0.310;2023-02-19T05:15:56;10.60;;;8.10;;
57565;SDS011;63999;43.882;-0.310;2023-02-19T05:18:23;9.88;;;7.60;;
57565;SDS011;63999;43.882;-0.310;2023-02-19T05:20:49;12.05;;;7.82;;
57565;SDS011;63999;43.882;-0.310;2023-02-19T05:23:16;11.23;;;7.97;;
57565;SDS011;63999;43.882;-0.310;2023-02-19T05:25:42;12.40;;;8.02;;
57565;SDS011;63999;43.882;-0.310;2023-02-19T05:28:08;12.73;;;7.90;;
57565;SDS011;63999;43.882;-0.310;2023-02-19T05:30:44;9.57;;;7.47;;
57565;SDS011;63999;43.882;-0.310;2023-02-19T05:33:12;10.82;;;7.88;;
57565;SDS011;63999;43.882;-0.310;2023-02-19T05:35:48;10.27;;;7.80;;
57565;SDS011;63999;43.882;-0.310;2023-02-19T05:38:16;12.38;;;7.50;;
57565;SDS011;63999;43.882;-0.310;2023-02-19T05:40:43;10.90;;;7.70;;
57565;SDS011;63999;43.882;-0.310;2023-02-19T05:43:09;10.05;;;7.05;;
57565;SDS011;63999;43.882;-0.310;2023-02-19T05:45:36;10.15;;;7.47;;
57565;SDS011;63999;43.882;-0.310;2023-02-19T05:48:02;13.30;;;7.38;;
57565;SDS011;63999;43.882;-0.310;2023-02-19T05:50:30;9.30;;;6.80;;
57565;SDS011;63999;43.882;-0.310;2023-02-19T05:52:58;11.80;;;7.05;;
57565;SDS011;63999;43.882;-0.310;2023-02-19T05:55:25;8.23;;;6.40;;
57565;SDS011;63999;43.882;-0.310;2023-02-19T05:57:51;8.70;;;6.70;;
57565;SDS011;63999;43.882;-0.310;2023-02-19T06:00:18;8.95;;;6.38;;
57565;SDS011;63999;43.882;-0.310;2023-02-19T06:02:45;8.63;;;6.75;;
57565;SDS011;63999;43.882;-0.310;2023-02-19T06:05:11;10.05;;;6.55;;
57565;SDS011;63999;43.882;-0.310;2023-02-19T06:07:37;8.93;;;7.03;;
57565;SDS011;63999;43.882;-0.310;2023-02-19T06:10:10;9.85;;;6.28;;
57565;SDS011;63999;43.882;-0.310;2023-02-19T06:12:36;8.52;;;6.20;;
57565;SDS011;63999;43.882;-0.310;2023-02-19T06:15:03;8.60;;;6.30;;
57565;SDS011;63999;43.882;-0.310;2023-02-19T06:17:30;11.00;;;6.00;;
57565;SDS011;63999;43.882;-0.310;2023-02-19T06:19:57;8.63;;;6.82;;
57565;SDS011;63999;43.882;-0.310;2023-02-19T06:22:22;7.97;;;6.00;;
57565;SDS011;63999;43.882;-0.310;2023-02-19T06:24:48;10.80;;;6.80;;
57565;SDS011;63999;43.882;-0.310;2023-02-19T06:27:14;11.55;;;6.53;;
57565;SDS011;63999;43.882;-0.310;2023-02-19T06:29:40;7.32;;;6.07;;
57565;SDS011;63999;43.882;-0.310;2023-02-19T06:32:06;10.05;;;6.47;;
57565;SDS011;63999;43.882;-0.310;2023-02-19T06:34:32;9.80;;;6.47;;
57565;SDS011;63999;43.882;-0.310;2023-02-19T06:36:58;8.52;;;6.53;;
57565;SDS011;63999;43.882;-0.310;2023-02-19T06:39:25;8.93;;;6.20;;
57565;SDS011;63999;43.882;-0.310;2023-02-19T06:41:54;8.13;;;6.57;;
57565;SDS011;63999;43.882;-0.310;2023-02-19T06:44:21;11.55;;;6.28;;
57565;SDS011;63999;43.882;-0.310;2023-02-19T06:46:46;9.25;;;6.53;;
57565;SDS011;63999;43.882;-0.310;2023-02-19T06:49:12;9.10;;;6.00;;
57565;SDS011;63999;43.882;-0.310;2023-02-19T06:51:39;8.82;;;5.90;;
57565;SDS011;63999;43.882;-0.310;2023-02-19T06:54:05;8.20;;;6.47;;
57565;SDS011;63999;43.882;-0.310;2023-02-19T06:56:35;10.75;;;6.55;;
57565;SDS011;63999;43.882;-0.310;2023-02-19T06:59:12;9.50;;;6.50;;
57565;SDS011;63999;43.882;-0.310;2023-02-19T07:01:42;9.35;;;6.28;;
57565;SDS011;63999;43.882;-0.310;2023-02-19T07:04:09;9.02;;;6.13;;
57565;SDS011;63999;43.882;-0.310;2023-02-19T07:06:36;9.10;;;6.18;;
57565;SDS011;63999;43.882;-0.310;2023-02-19T07:09:02;8.80;;;6.28;;
57565;SDS011;63999;43.882;-0.310;2023-02-19T07:11:30;9.93;;;6.80;;
57565;SDS011;63999;43.882;-0.310;2023-02-19T07:13:58;9.43;;;6.60;;
57565;SDS011;63999;43.882;-0.310;2023-02-19T07:16:25;8.95;;;6.90;;
57565;SDS011;63999;43.882;-0.310;2023-02-19T07:18:52;8.27;;;6.68;;
57565;SDS011;63999;43.882;-0.310;2023-02-19T07:21:20;13.35;;;7.07;;
57565;SDS011;63999;43.882;-0.310;2023-02-19T07:23:46;12.95;;;7.40;;
57565;SDS011;63999;43.882;-0.310;2023-02-19T07:26:12;8.38;;;6.63;;
57565;SDS011;63999;43.882;-0.310;2023-02-19T07:28:41;9.75;;;6.68;;
57565;SDS011;63999;43.882;-0.310;2023-02-19T07:31:08;10.93;;;6.70;;
57565;SDS011;63999;43.882;-0.310;2023-02-19T07:33:34;10.50;;;7.78;;
57565;SDS011;63999;43.882;-0.310;2023-02-19T07:36:00;7.85;;;6.47;;
57565;SDS011;63999;43.882;-0.310;2023-02-19T07:38:26;10.93;;;6.95;;
57565;SDS011;63999;43.882;-0.310;2023-02-19T07:40:56;9.57;;;6.78;;
57565;SDS011;63999;43.882;-0.310;2023-02-19T07:43:23;10.65;;;7.10;;
57565;SDS011;63999;43.882;-0.310;2023-02-19T07:45:51;8.85;;;6.50;;
57565;SDS011;63999;43.882;-0.310;2023-02-19T07:48:16;11.45;;;6.70;;
57565;SDS011;63999;43.882;-0.310;2023-02-19T07:50:50;10.63;;;7.28;;
57565;SDS011;63999;43.882;-0.310;2023-02-19T07:53:16;10.10;;;7.10;;
57565;SDS011;63999;43.882;-0.310;2023-02-19T07:55:43;11.95;;;7.20;;
57565;SDS011;63999;43.882;-0.310;2023-02-19T07:58:08;9.25;;;6.88;;
57565;SDS011;63999;43.882;-0.310;2023-02-19T08:00:34;14.82;;;8.20;;
57565;SDS011;63999;43.882;-0.310;2023-02-19T08:03:00;12.82;;;9.05;;
57565;SDS011;63999;43.882;-0.310;2023-02-19T08:05:28;13.80;;;9.70;;
57565;SDS011;63999;43.882;-0.310;2023-02-19T08:07:55;11.50;;;8.40;;
57565;SDS011;63999;43.882;-0.310;2023-02-19T08:10:22;14.77;;;9.27;;
57565;SDS011;63999;43.882;-0.310;2023-02-19T08:13:09;11.45;;;9.38;;
57565;SDS011;63999;43.882;-0.310;2023-02-19T08:15:50;15.30;;;12.10;;
57565;SDS011;63999;43.882;-0.310;2023-02-19T08:18:18;16.48;;;12.25;;
57565;SDS011;63999;43.882;-0.310;2023-02-19T08:20:46;19.17;;;12.48;;
57565;SDS011;63999;43.882;-0.310;2023-02-19T08:23:13;14.80;;;10.55;;
57565;SDS011;63999;43.882;-0.310;2023-02-19T08:25:39;16.50;;;11.05;;
57565;SDS011;63999;43.882;-0.310;2023-02-19T08:28:06;13.65;;;10.45;;
57565;SDS011;63999;43.882;-0.310;2023-02-19T08:30:34;17.42;;;11.25;;
57565;SDS011;63999;43.882;-0.310;2023-02-19T08:33:02;14.43;;;9.35;;
57565;SDS011;63999;43.882;-0.310;2023-02-19T08:35:29;18.83;;;12.48;;
57565;SDS011;63999;43.882;-0.310;2023-02-19T08:37:58;17.35;;;12.45;;
57565;SDS011;63999;43.882;-0.310;2023-02-19T08:40:24;16.35;;;11.43;;
57565;SDS011;63999;43.882;-0.310;2023-02-19T08:42:50;22.05;;;14.32;;
57565;SDS011;63999;43.882;-0.310;2023-02-19T08:45:16;22.83;;;15.00;;
57565;SDS011;63999;43.882;-0.310;2023-02-19T08:47:43;22.55;;;14.52;;
57565;SDS011;63999;43.882;-0.310;2023-02-19T08:50:09;22.23;;;14.88;;
57565;SDS011;63999;43.882;-0.310;2023-02-19T08:52:35;19.60;;;14.25;;
57565;SDS011;63999;43.882;-0.310;2023-02-19T08:55:02;20.90;;;13.85;;
57565;SDS011;63999;43.882;-0.310;2023-02-19T08:57:28;15.77;;;11.65;;
57565;SDS011;63999;43.882;-0.310;2023-02-19T08:59:55;22.15;;;14.18;;
57565;SDS011;63999;43.882;-0.310;2023-02-19T09:02:21;17.35;;;11.75;;
57565;SDS011;63999;43.882;-0.310;2023-02-19T09:04:48;21.83;;;14.40;;
57565;SDS011;63999;43.882;-0.310;2023-02-19T09:07:14;19.13;;;13.13;;
57565;SDS011;63999;43.882;-0.310;2023-02-19T09:09:40;17.80;;;12.45;;
57565;SDS011;63999;43.882;-0.310;2023-02-19T09:12:10;17.27;;;13.02;;
57565;SDS011;63999;43.882;-0.310;2023-02-19T09:14:37;22.08;;;14.15;;
57565;SDS011;63999;43.882;-0.310;2023-02-19T09:17:04;10.20;;;7.85;;
57565;SDS011;63999;43.882;-0.310;2023-02-19T09:19:31;22.92;;;13.80;;
57565;SDS011;63999;43.882;-0.310;2023-02-19T09:21:57;20.00;;;13.45;;
57565;SDS011;63999;43.882;-0.310;2023-02-19T09:24:23;19.65;;;13.82;;
57565;SDS011;63999;43.882;-0.310;2023-02-19T09:26:50;20.00;;;14.45;;
57565;SDS011;63999;43.882;-0.310;2023-02-19T09:29:16;20.58;;;13.65;;
57565;SDS011;63999;43.882;-0.310;2023-02-19T09:31:42;39.70;;;13.02;;
57565;SDS011;63999;43.882;-0.310;2023-02-19T09:34:08;20.88;;;14.32;;
57565;SDS011;63999;43.882;-0.310;2023-02-19T09:36:36;16.40;;;11.95;;
57565;SDS011;63999;43.882;-0.310;2023-02-19T09:39:03;16.02;;;11.60;;
57565;SDS011;63999;43.882;-0.310;2023-02-19T09:41:31;17.73;;;12.73;;
57565;SDS011;63999;43.882;-0.310;2023-02-19T09:44:01;18.83;;;13.88;;
57565;SDS011;63999;43.882;-0.310;2023-02-19T09:46:30;22.90;;;15.05;;
57565;SDS011;63999;43.882;-0.310;2023-02-19T09:49:16;20.35;;;13.68;;
57565;SDS011;63999;43.882;-0.310;2023-02-19T09:51:51;20.83;;;14.68;;
57565;SDS011;63999;43.882;-0.310;2023-02-19T09:54:24;16.20;;;12.18;;
57565;SDS011;63999;43.882;-0.310;2023-02-19T09:56:55;21.88;;;15.63;;
57565;SDS011;63999;43.882;-0.310;2023-02-19T09:59:25;22.20;;;16.73;;
57565;SDS011;63999;43.882;-0.310;2023-02-19T10:02:04;19.25;;;14.30;;
57565;SDS011;63999;43.882;-0.310;2023-02-19T10:04:40;23.27;;;16.25;;
57565;SDS011;63999;43.882;-0.310;2023-02-19T10:07:17;22.60;;;15.63;;
57565;SDS011;63999;43.882;-0.310;2023-02-19T10:09:52;20.95;;;15.48;;
57565;SDS011;63999;43.882;-0.310;2023-02-19T10:12:28;21.52;;;14.93;;
57565;SDS011;63999;43.882;-0.310;2023-02-19T10:14:59;21.48;;;14.88;;
57565;SDS011;63999;43.882;-0.310;2023-02-19T10:17:36;20.55;;;15.02;;
57565;SDS011;63999;43.882;-0.310;2023-02-19T10:20:02;15.20;;;11.07;;
57565;SDS011;63999;43.882;-0.310;2023-02-19T10:22:29;14.95;;;11.40;;
57565;SDS011;63999;43.882;-0.310;2023-02-19T10:24:57;15.90;;;11.43;;
57565;SDS011;63999;43.882;-0.310;2023-02-19T10:27:25;18.05;;;12.45;;
57565;SDS011;63999;43.882;-0.310;2023-02-19T10:29:54;22.73;;;16.75;;
57565;SDS011;63999;43.882;-0.310;2023-02-19T10:32:23;24.58;;;16.38;;
57565;SDS011;63999;43.882;-0.310;2023-02-19T10:37:40;29.98;;;21.33;;
57565;SDS011;63999;43.882;-0.310;2023-02-19T10:40:19;37.15;;;24.95;;
57565;SDS011;63999;43.882;-0.310;2023-02-19T10:42:47;43.90;;;28.13;;
57565;SDS011;63999;43.882;-0.310;2023-02-19T10:45:47;39.75;;;26.77;;
57565;SDS011;63999;43.882;-0.310;2023-02-19T10:48:25;42.20;;;27.27;;
57565;SDS011;63999;43.882;-0.310;2023-02-19T10:50:55;41.30;;;27.08;;
57565;SDS011;63999;43.882;-0.310;2023-02-19T10:54:04;34.58;;;24.13;;
57565;SDS011;63999;43.882;-0.310;2023-02-19T10:56:31;35.45;;;23.50;;
57565;SDS011;63999;43.882;-0.310;2023-02-19T11:01:55;30.45;;;21.08;;
57565;SDS011;63999;43.882;-0.310;2023-02-19T11:04:24;36.58;;;25.90;;
57565;SDS011;63999;43.882;-0.310;2023-02-19T11:06:51;32.20;;;23.38;;
57565;SDS011;63999;43.882;-0.310;2023-02-19T11:11:52;39.22;;;27.33;;
57565;SDS011;63999;43.882;-0.310;2023-02-19T11:14:20;44.20;;;27.77;;
57565;SDS011;63999;43.882;-0.310;2023-02-19T11:16:49;41.72;;;26.55;;
57565;SDS011;63999;43.882;-0.310;2023-02-19T11:19:30;47.70;;;30.60;;
57565;SDS011;63999;43.882;-0.310;2023-02-19T11:21:57;42.80;;;27.98;;
57565;SDS011;63999;43.882;-0.310;2023-02-19T11:24:29;56.95;;;35.10;;
57565;SDS011;63999;43.882;-0.310;2023-02-19T11:27:02;53.03;;;32.40;;
57565;SDS011;63999;43.882;-0.310;2023-02-19T11:29:31;71.95;;;42.20;;
57565;SDS011;63999;43.882;-0.310;2023-02-19T11:37:54;54.90;;;34.60;;
57565;SDS011;63999;43.882;-0.310;2023-02-19T11:40:26;58.60;;;36.45;;
57565;SDS011;63999;43.882;-0.310;2023-02-19T11:43:04;60.88;;;36.70;;
57565;SDS011;63999;43.882;-0.310;2023-02-19T11:45:45;55.40;;;33.92;;
57565;SDS011;63999;43.882;-0.310;2023-02-19T11:48:30;58.15;;;36.53;;
57565;SDS011;63999;43.882;-0.310;2023-02-19T11:56:43;54.13;;;33.38;;
57565;SDS011;63999;43.882;-0.310;2023-02-19T12:15:30;47.45;;;30.17;;
57565;SDS011;63999;43.882;-0.310;2023-02-19T12:23:36;38.00;;;26.35;;
57565;SDS011;63999;43.882;-0.310;2023-02-19T12:26:22;39.97;;;26.33;;
57565;SDS011;63999;43.882;-0.310;2023-02-19T12:34:34;36.80;;;23.27;;
57565;SDS011;63999;43.882;-0.310;2023-02-19T12:37:37;34.67;;;23.83;;
57565;SDS011;63999;43.882;-0.310;2023-02-19T12:43:23;35.20;;;22.55;;
57565;SDS011;63999;43.882;-0.310;2023-02-19T12:46:10;32.83;;;22.13;;
57565;SDS011;63999;43.882;-0.310;2023-02-19T12:49:26;29.15;;;20.02;;
57565;SDS011;63999;43.882;-0.310;2023-02-19T12:51:35;34.80;;;22.35;;
57565;SDS011;63999;43.882;-0.310;2023-02-19T12:54:13;33.03;;;22.42;;
57565;SDS011;63999;43.882;-0.310;2023-02-19T12:56:43;35.38;;;23.30;;
57565;SDS011;63999;43.882;-0.310;2023-02-19T12:59:37;33.70;;;22.42;;
57565;SDS011;63999;43.882;-0.310;2023-02-19T13:07:38;29.08;;;19.60;;
57565;SDS011;63999;43.882;-0.310;2023-02-19T13:10:28;28.20;;;19.00;;
57565;SDS011;63999;43.882;-0.310;2023-02-19T13:13:14;28.85;;;19.30;;
57565;SDS011;63999;43.882;-0.310;2023-02-19T13:15:52;32.28;;;21.05;;
57565;SDS011;63999;43.882;-0.310;2023-02-19T13:19:08;27.55;;;17.77;;
57565;SDS011;63999;43.882;-0.310;2023-02-19T13:21:20;33.28;;;21.02;;
57565;SDS011;63999;43.882;-0.310;2023-02-19T13:24:10;26.10;;;17.45;;
57565;SDS011;63999;43.882;-0.310;2023-02-19T13:38:15;29.13;;;17.98;;
57565;SDS011;63999;43.882;-0.310;2023-02-19T13:40:50;30.77;;;19.10;;
57565;SDS011;63999;43.882;-0.310;2023-02-19T13:43:31;26.55;;;17.83;;
57565;SDS011;63999;43.882;-0.310;2023-02-19T13:46:02;25.35;;;16.80;;
57565;SDS011;63999;43.882;-0.310;2023-02-19T13:48:34;23.70;;;15.50;;
57565;SDS011;63999;43.882;-0.310;2023-02-19T14:17:48;21.65;;;14.85;;
57565;SDS011;63999;43.882;-0.310;2023-02-19T14:27:53;20.58;;;12.00;;
57565;SDS011;63999;43.882;-0.310;2023-02-19T14:30:24;20.67;;;13.27;;
57565;SDS011;63999;43.882;-0.310;2023-02-19T14:32:51;18.45;;;12.82;;
57565;SDS011;63999;43.882;-0.310;2023-02-19T14:35:18;22.65;;;14.25;;
57565;SDS011;63999;43.882;-0.310;2023-02-19T14:37:46;20.90;;;13.75;;
57565;SDS011;63999;43.882;-0.310;2023-02-19T14:40:17;21.27;;;14.02;;
57565;SDS011;63999;43.882;-0.310;2023-02-19T14:42:50;18.50;;;12.55;;
57565;SDS011;63999;43.882;-0.310;2023-02-19T14:45:18;19.73;;;13.10;;
57565;SDS011;63999;43.882;-0.310;2023-02-19T14:47:45;22.90;;;14.23;;
57565;SDS011;63999;43.882;-0.310;2023-02-19T14:50:27;19.10;;;12.45;;
57565;SDS011;63999;43.882;-0.310;2023-02-19T14:52:57;18.98;;;12.38;;
57565;SDS011;63999;43.882;-0.310;2023-02-19T14:58:05;19.77;;;12.73;;
57565;SDS011;63999;43.882;-0.310;2023-02-19T15:00:37;21.65;;;12.57;;
57565;SDS011;63999;43.882;-0.310;2023-02-19T15:03:05;18.60;;;11.70;;
57565;SDS011;63999;43.882;-0.310;2023-02-19T15:05:52;17.00;;;11.20;;
57565;SDS011;63999;43.882;-0.310;2023-02-19T15:08:26;20.23;;;11.00;;
57565;SDS011;63999;43.882;-0.310;2023-02-19T15:11:01;24.35;;;10.57;;
57565;SDS011;63999;43.882;-0.310;2023-02-19T15:13:32;16.25;;;10.90;;
57565;SDS011;63999;43.882;-0.310;2023-02-19T15:15:59;16.17;;;11.10;;
57565;SDS011;63999;43.882;-0.310;2023-02-19T15:18:25;17.13;;;10.65;;
57565;SDS011;63999;43.882;-0.310;2023-02-19T15:20:58;16.10;;;10.38;;
57565;SDS011;63999;43.882;-0.310;2023-02-19T15:25:54;16.92;;;10.90;;
57565;SDS011;63999;43.882;-0.310;2023-02-19T15:33:21;13.60;;;10.23;;
57565;SDS011;63999;43.882;-0.310;2023-02-19T15:35:51;13.27;;;9.35;;
57565;SDS011;63999;43.882;-0.310;2023-02-19T15:38:23;13.13;;;8.98;;
57565;SDS011;63999;43.882;-0.310;2023-02-19T15:40:49;13.73;;;9.07;;
57565;SDS011;63999;43.882;-0.310;2023-02-19T15:46:19;18.20;;;11.40;;
57565;SDS011;63999;43.882;-0.310;2023-02-19T15:48:48;18.02;;;11.23;;
57565;SDS011;63999;43.882;-0.310;2023-02-19T15:51:42;19.63;;;11.82;;
57565;SDS011;63999;43.882;-0.310;2023-02-19T15:54:20;17.58;;;11.60;;
57565;SDS011;63999;43.882;-0.310;2023-02-19T15:56:56;19.60;;;10.93;;
57565;SDS011;63999;43.882;-0.310;2023-02-19T15:59:37;17.65;;;11.10;;
57565;SDS011;63999;43.882;-0.310;2023-02-19T16:02:13;16.52;;;10.35;;
57565;SDS011;63999;43.882;-0.310;2023-02-19T16:04:40;17.40;;;10.90;;
57565;SDS011;63999;43.882;-0.310;2023-02-19T16:07:26;15.85;;;10.52;;
57565;SDS011;63999;43.882;-0.310;2023-02-19T16:10:11;14.93;;;10.32;;
57565;SDS011;63999;43.882;-0.310;2023-02-19T16:12:55;15.77;;;10.32;;
57565;SDS011;63999;43.882;-0.310;2023-02-19T16:15:22;17.13;;;10.68;;
57565;SDS011;63999;43.882;-0.310;2023-02-19T16:17:49;14.60;;;9.95;;
57565;SDS011;63999;43.882;-0.310;2023-02-19T16:20:33;13.43;;;9.40;;
57565;SDS011;63999;43.882;-0.310;2023-02-19T16:23:04;15.63;;;10.20;;
57565;SDS011;63999;43.882;-0.310;2023-02-19T16:25:39;15.68;;;9.98;;
57565;SDS011;63999;43.882;-0.310;2023-02-19T16:28:09;14.60;;;10.30;;
57565;SDS011;63999;43.882;-0.310;2023-02-19T16:30:36;16.83;;;10.30;;
57565;SDS011;63999;43.882;-0.310;2023-02-19T16:35:56;14.75;;;10.35;;
57565;SDS011;63999;43.882;-0.310;2023-02-19T16:38:22;15.93;;;10.32;;
57565;SDS011;63999;43.882;-0.310;2023-02-19T16:45:54;15.13;;;9.95;;
57565;SDS011;63999;43.882;-0.310;2023-02-19T16:48:21;14.95;;;10.10;;
57565;SDS011;63999;43.882;-0.310;2023-02-19T16:50:47;16.20;;;10.55;;
57565;SDS011;63999;43.882;-0.310;2023-02-19T16:53:21;15.38;;;9.80;;
57565;SDS011;63999;43.882;-0.310;2023-02-19T16:55:53;14.35;;;10.25;;
57565;SDS011;63999;43.882;-0.310;2023-02-19T16:58:19;15.93;;;10.48;;
57565;SDS011;63999;43.882;-0.310;2023-02-19T17:00:45;14.27;;;10.32;;
57565;SDS011;63999;43.882;-0.310;2023-02-19T17:03:15;13.88;;;10.20;;
57565;SDS011;63999;43.882;-0.310;2023-02-19T17:08:20;13.35;;;9.52;;
57565;SDS011;63999;43.882;-0.310;2023-02-19T17:11:03;13.93;;;9.85;;
57565;SDS011;63999;43.882;-0.310;2023-02-19T17:13:30;21.48;;;13.02;;
57565;SDS011;63999;43.882;-0.310;2023-02-19T17:15:56;22.30;;;11.98;;
57565;SDS011;63999;43.882;-0.310;2023-02-19T17:18:23;27.30;;;13.70;;
57565;SDS011;63999;43.882;-0.310;2023-02-19T17:21:12;22.33;;;12.30;;
57565;SDS011;63999;43.882;-0.310;2023-02-19T17:23:40;20.50;;;10.70;;
57565;SDS011;63999;43.882;-0.310;2023-02-19T17:26:08;16.52;;;10.35;;